createdAt,value
2017-11-10T00:08:11.117Z,7.25
2017-11-10T00:28:41.474Z,7.19
2017-11-10T00:49:18.591Z,7.14
2017-11-10T01:09:51.711Z,7.16
2017-11-10T01:30:22.066Z,7.24
2017-11-10T01:50:57.577Z,7.30
2017-11-10T02:11:29.537Z,7.24
2017-11-10T02:32:02.663Z,7.17
2017-11-10T02:52:35.193Z,7.12
2017-11-10T03:13:12.281Z,7.07
2017-11-10T03:33:47.562Z,6.98
2017-11-10T03:54:20.670Z,6.83
2017-11-10T04:14:53.795Z,6.79
2017-11-10T04:35:30.344Z,6.79
2017-11-10T04:56:04.344Z,6.78
2017-11-10T05:16:36.780Z,6.70
2017-11-10T05:37:09.658Z,6.59
2017-11-10T05:57:46.208Z,6.58
2017-11-10T06:18:21.437Z,6.64
2017-11-10T06:38:55.467Z,6.63
2017-11-10T06:59:30.743Z,6.50
2017-11-10T07:38:01.536Z,6.45
2017-11-10T07:58:35.579Z,6.52
2017-11-10T08:19:09.932Z,6.68
2017-11-10T08:39:42.133Z,6.70
2017-11-10T09:00:17.406Z,6.83
2017-11-10T09:20:52.031Z,6.92
2017-11-10T09:41:34.092Z,7.00
2017-11-10T10:02:13.357Z,7.09
2017-11-10T10:23:03.909Z,7.07
2017-11-10T10:43:39.875Z,7.36
2017-11-10T11:04:15.148Z,7.40
2017-11-10T11:24:53.185Z,7.43
2017-11-10T11:45:30.607Z,7.51
2017-11-10T12:06:04.054Z,7.66
2017-11-10T12:26:36.852Z,7.56
2017-11-10T12:47:12.662Z,7.75
2017-11-10T13:07:45.246Z,7.96
2017-11-10T13:28:18.674Z,8.16
2017-11-10T13:48:54.864Z,8.30
2017-11-10T14:09:30.178Z,8.33
2017-11-10T14:30:04.487Z,8.42
2017-11-10T14:50:39.832Z,8.46
2017-11-10T15:11:14.729Z,8.67
2017-11-10T15:31:48.271Z,8.81
2017-11-10T15:52:19.463Z,8.94
2017-11-10T16:12:53.480Z,8.96
2017-11-10T16:33:29.937Z,9.08
2017-11-10T16:54:07.178Z,9.13
2017-11-10T17:14:42.979Z,9.14
2017-11-10T17:35:21.672Z,9.14
2017-11-10T17:55:57.517Z,9.15
2017-11-10T18:16:30.027Z,9.16
2017-11-10T18:37:08.376Z,9.14
2017-11-10T18:57:45.619Z,9.12
2017-11-10T19:18:24.891Z,8.81
2017-11-10T19:38:59.719Z,8.60
2017-11-10T19:59:37.135Z,8.22
2017-11-10T20:20:10.260Z,8.09
2017-11-10T20:40:45.532Z,7.60
2017-11-10T21:01:20.805Z,7.29
2017-11-10T21:21:56.998Z,7.37
2017-11-10T21:42:34.539Z,7.30
2017-11-10T22:03:11.796Z,7.29
2017-11-10T22:23:49.879Z,7.05
2017-11-10T22:44:25.300Z,6.98
2017-11-10T23:05:04.570Z,6.94
2017-11-10T23:25:39.380Z,6.98
2017-11-10T23:46:13.735Z,7.09
